Airfield :
LOGIN :

Register | Disclaimer

   EN    FR    IT 

 










Legend :    VFR   Marginal VFR   IFR   Intensive IFR   Very Intensive IFR
Visi :
Ceiling :
>= 8 km
>= 3000ft
5 to 8 km
1000 to 3000 ft
1500m to 5 km
500 to 1000 ft
800 to 1500m
200 to 500 ft
< 800m
< 200 ft
Symbols :   Thunderstorms  Fog  Heavy snow  Heavy precipitations  Wind > 20 kt
SIGMETs :     Misc.  Thunderstorms  Icing  Turbulence  Mountain Waves  Volcanic Ashes






- Airport Elevation : 247 ft
- IATA code : BLL


EKBI - Billund

CURRENT METAR :
  • 151550Z 26017KT 9999 -SHRA SCT011 BKN019TCU 05/04 Q0989

EXPIRED METARs :
  • 151520Z 28022G32KT 9999 SCT014 BKN024 05/03 Q0987
  • 151450Z 27022G34KT 9999 BKN014 BKN018TCU 05/03 Q0986
  • 151420Z 24015KT 9999 -SHRA BKN012 BKN020CB 05/04 Q0984
  • 151350Z 24018G35KT 9000 -SHRA BKN014 BKN019CB 06/04 Q0983
  • 151320Z 23018G30KT 190V250 9999 SHRA SCT014 SCT019CB 05/04 Q0982

TAF TAF EKBI
Valid from the 15 at 12:00 until the 16 at 12:00 UTC


151113Z 1512/1612 22025G42KT 9999 BKN025
TEMPO 1512/1515 23020G35KT 4000 SHRA BKN010CB
BECMG 1515/1516 26020G35KT
TEMPO 1515/1521 4000 SHRA BKN010 SCT020CB
BECMG 1518/1520 24010KT
TEMPO 1605/1612 4000 SHRA BR BKN008 BKN020CB



MET'MAP, your aeronautical weather chart ! - Copyright ORBIFLY December 2007 - Disclaimer

ORBIFLY MET'MAP TEAM :

Programming & Development : Alexandra Zaïnal
Concept & original design : Baudouin d'Aumeries
Assistance for programming : Marc-Olivier Méhu
Technical & hardware support : Manuel Goepfert

Contact : metmap@orbifly.com




SOURCES & CREDITS :

   NOAA